Time;durP1;ratioP1;P1;durP2;ratioP2;P2;SDS_P1;SDS_P2;PMS_P1;PMS_P2;Temp;Humidity;BMP_temperature;BMP_pressure;BME280_temperature;BME280_humidity;BME280_pressure;Samples;Min_cycle;Max_cycle;Signal;HPM_P1;HPM_P2
2020/03/15 00:00:39;;;;;;;8.4;5;;;;;;;;;;;;;
2020/03/15 00:03:06;;;;;;;8.9;5.4;;;;;;;;;;;;;
2020/03/15 00:05:31;;;;;;;10.6;5.9;;;;;;;;;;;;;
2020/03/15 00:07:57;;;;;;;10.2;6;;;;;;;;;;;;;
2020/03/15 00:10:22;;;;;;;11;6.4;;;;;;;;;;;;;
2020/03/15 00:12:47;;;;;;;11.4;6.3;;;;;;;;;;;;;
2020/03/15 00:15:12;;;;;;;11.3;6.1;;;;;;;;;;;;;
2020/03/15 00:17:37;;;;;;;10.4;6.4;;;;;;;;;;;;;
2020/03/15 00:20:03;;;;;;;11.6;6;;;;;;;;;;;;;
2020/03/15 00:22:29;;;;;;;12.6;6.4;;;;;;;;;;;;;
2020/03/15 00:24:54;;;;;;;11.7;6.4;;;;;;;;;;;;;
2020/03/15 00:27:20;;;;;;;9.3;5.8;;;;;;;;;;;;;
2020/03/15 00:29:45;;;;;;;10.2;5.2;;;;;;;;;;;;;
2020/03/15 00:32:10;;;;;;;13.9;6.3;;;;;;;;;;;;;
2020/03/15 00:34:35;;;;;;;8.8;4.7;;;;;;;;;;;;;
2020/03/15 00:37:00;;;;;;;7.5;4.4;;;;;;;;;;;;;
2020/03/15 00:39:25;;;;;;;9.7;4.5;;;;;;;;;;;;;
2020/03/15 00:41:50;;;;;;;10;4.9;;;;;;;;;;;;;
2020/03/15 00:44:16;;;;;;;8.5;4.7;;;;;;;;;;;;;
2020/03/15 00:46:41;;;;;;;9.3;5.1;;;;;;;;;;;;;
2020/03/15 00:49:06;;;;;;;11.2;5.6;;;;;;;;;;;;;
2020/03/15 00:51:31;;;;;;;10.6;6.3;;;;;;;;;;;;;
2020/03/15 00:53:56;;;;;;;11.7;6.1;;;;;;;;;;;;;
2020/03/15 00:56:21;;;;;;;13.1;6;;;;;;;;;;;;;
2020/03/15 00:58:46;;;;;;;11;6.2;;;;;;;;;;;;;
2020/03/15 01:01:11;;;;;;;11;6.7;;;;;;;;;;;;;
2020/03/15 01:03:37;;;;;;;13.2;6.6;;;;;;;;;;;;;
2020/03/15 01:06:02;;;;;;;11.5;6.3;;;;;;;;;;;;;
2020/03/15 01:08:27;;;;;;;11.2;6.2;;;;;;;;;;;;;
2020/03/15 01:10:52;;;;;;;10.3;6.4;;;;;;;;;;;;;
2020/03/15 01:13:17;;;;;;;12;5.9;;;;;;;;;;;;;
2020/03/15 01:15:42;;;;;;;8.6;5.6;;;;;;;;;;;;;
2020/03/15 01:18:07;;;;;;;10.8;6;;;;;;;;;;;;;
2020/03/15 01:20:32;;;;;;;11.6;6.2;;;;;;;;;;;;;
2020/03/15 01:22:57;;;;;;;10.9;6.7;;;;;;;;;;;;;
2020/03/15 01:25:23;;;;;;;10.8;6.9;;;;;;;;;;;;;
2020/03/15 01:27:48;;;;;;;12.8;7.5;;;;;;;;;;;;;
2020/03/15 01:30:13;;;;;;;16.1;7.2;;;;;;;;;;;;;
2020/03/15 01:32:38;;;;;;;12.4;7.3;;;;;;;;;;;;;
2020/03/15 01:35:03;;;;;;;11.9;7.3;;;;;;;;;;;;;
2020/03/15 01:37:28;;;;;;;13.9;7.2;;;;;;;;;;;;;
2020/03/15 01:39:53;;;;;;;9.9;6.6;;;;;;;;;;;;;
2020/03/15 01:42:19;;;;;;;11.4;6.5;;;;;;;;;;;;;
2020/03/15 01:44:43;;;;;;;14.9;7;;;;;;;;;;;;;
2020/03/15 01:47:09;;;;;;;13.5;8.8;;;;;;;;;;;;;
2020/03/15 01:49:34;;;;;;;11;8;;;;;;;;;;;;;
2020/03/15 01:51:59;;;;;;;12.3;7.7;;;;;;;;;;;;;
2020/03/15 01:54:24;;;;;;;12.4;8.1;;;;;;;;;;;;;
2020/03/15 01:56:49;;;;;;;13.2;7.5;;;;;;;;;;;;;
2020/03/15 01:59:14;;;;;;;11.7;7.2;;;;;;;;;;;;;
2020/03/15 02:01:39;;;;;;;12.7;7.1;;;;;;;;;;;;;
2020/03/15 02:04:04;;;;;;;12.7;7.3;;;;;;;;;;;;;
2020/03/15 02:06:38;;;;;;;11;7.3;;;;;;;;;;;;;
2020/03/15 02:08:58;;;;;;;16.2;7.8;;;;;;;;;;;;;
2020/03/15 02:11:19;;;;;;;12.2;7.3;;;;;;;;;;;;;
2020/03/15 02:13:45;;;;;;;11.9;7;;;;;;;;;;;;;
2020/03/15 02:16:10;;;;;;;14.3;7.2;;;;;;;;;;;;;
2020/03/15 02:18:35;;;;;;;12.3;6.8;;;;;;;;;;;;;
2020/03/15 02:21:00;;;;;;;12.1;6.9;;;;;;;;;;;;;
2020/03/15 02:23:25;;;;;;;11.4;7;;;;;;;;;;;;;
2020/03/15 02:25:50;;;;;;;13;6.9;;;;;;;;;;;;;
2020/03/15 02:28:16;;;;;;;11;6.6;;;;;;;;;;;;;
2020/03/15 02:30:41;;;;;;;13.8;7.1;;;;;;;;;;;;;
2020/03/15 02:33:06;;;;;;;11.7;7.1;;;;;;;;;;;;;
2020/03/15 02:35:31;;;;;;;12;7.3;;;;;;;;;;;;;
2020/03/15 02:37:56;;;;;;;12.2;7.2;;;;;;;;;;;;;
2020/03/15 02:40:21;;;;;;;13;7;;;;;;;;;;;;;
2020/03/15 02:42:47;;;;;;;12;7.4;;;;;;;;;;;;;
2020/03/15 02:45:12;;;;;;;14.2;7.6;;;;;;;;;;;;;
2020/03/15 02:47:37;;;;;;;11.6;7.5;;;;;;;;;;;;;
2020/03/15 02:50:02;;;;;;;12.9;7.5;;;;;;;;;;;;;
2020/03/15 02:52:27;;;;;;;11;6.6;;;;;;;;;;;;;
2020/03/15 02:54:52;;;;;;;12.4;7.6;;;;;;;;;;;;;
2020/03/15 02:57:17;;;;;;;13;7;;;;;;;;;;;;;
2020/03/15 02:59:42;;;;;;;11.2;6.8;;;;;;;;;;;;;
2020/03/15 03:02:07;;;;;;;10.3;6.9;;;;;;;;;;;;;
2020/03/15 03:04:33;;;;;;;11.6;7.4;;;;;;;;;;;;;
2020/03/15 03:06:58;;;;;;;10.4;6.7;;;;;;;;;;;;;
2020/03/15 03:09:23;;;;;;;11.6;7.1;;;;;;;;;;;;;
2020/03/15 03:11:48;;;;;;;12.1;7.2;;;;;;;;;;;;;
2020/03/15 03:14:14;;;;;;;11.6;7;;;;;;;;;;;;;
2020/03/15 03:16:38;;;;;;;12.3;7.1;;;;;;;;;;;;;
2020/03/15 03:19:03;;;;;;;11.4;6.9;;;;;;;;;;;;;
2020/03/15 03:21:28;;;;;;;12.4;6.9;;;;;;;;;;;;;
2020/03/15 03:23:53;;;;;;;12.2;6.9;;;;;;;;;;;;;
2020/03/15 03:26:19;;;;;;;11.3;6.9;;;;;;;;;;;;;
2020/03/15 03:28:44;;;;;;;10.5;6.8;;;;;;;;;;;;;
2020/03/15 03:31:12;;;;;;;14.1;7.4;;;;;;;;;;;;;
2020/03/15 03:33:34;;;;;;;11.6;7.6;;;;;;;;;;;;;
2020/03/15 03:35:59;;;;;;;12.2;7.5;;;;;;;;;;;;;
2020/03/15 03:38:24;;;;;;;12.5;7.1;;;;;;;;;;;;;
2020/03/15 03:40:49;;;;;;;13.8;7.2;;;;;;;;;;;;;
2020/03/15 03:43:14;;;;;;;13.1;7.4;;;;;;;;;;;;;
2020/03/15 03:45:40;;;;;;;11.8;7.1;;;;;;;;;;;;;
2020/03/15 03:48:05;;;;;;;11.9;6.8;;;;;;;;;;;;;
2020/03/15 03:50:30;;;;;;;11;7.2;;;;;;;;;;;;;
2020/03/15 03:52:55;;;;;;;13.8;7.5;;;;;;;;;;;;;
2020/03/15 03:55:20;;;;;;;12.6;7.2;;;;;;;;;;;;;
2020/03/15 03:57:45;;;;;;;13.6;7.3;;;;;;;;;;;;;
2020/03/15 04:02:30;;;;;;;12.2;6.6;;;;;;;1.4;89.18848;942.012;;;;
2020/03/15 04:04:55;;;;;;;11.5;6.9;;;;;;;1.3;89.41211;942.0022;;;;
2020/03/15 04:07:20;;;;;;;11.5;6.4;;;;;;;1.26;89.96289;942.0042;;;;
2020/03/15 04:09:45;;;;;;;10.9;6.2;;;;;;;1.38;89.27441;941.9648;;;;
2020/03/15 04:12:11;;;;;;;13.6;6.6;;;;;;;1.27;89.78418;942.0704;;;;
2020/03/15 04:14:36;;;;;;;11.3;6.5;;;;;;;1.03;91.1875;941.9903;;;;
2020/03/15 04:17:01;;;;;;;12.1;6.4;;;;;;;0.97;92.30176;942.0133;;;;
2020/03/15 04:19:26;;;;;;;10.9;6.2;;;;;;;1.07;91.86523;942.0438;;;;
2020/03/15 04:21:51;;;;;;;10;6.5;;;;;;;1.04;91.27734;942.0297;;;;
2020/03/15 04:24:16;;;;;;;10.3;5.9;;;;;;;1.02;91.42969;941.9942;;;;
2020/03/15 04:26:41;;;;;;;10.4;6;;;;;;;1.21;90.53418;941.9785;;;;
2020/03/15 04:29:06;;;;;;;13.7;6.6;;;;;;;1.19;90.27344;941.9034;;;;
2020/03/15 04:31:31;;;;;;;13.2;6.3;;;;;;;1.23;90.39063;941.9366;;;;
2020/03/15 04:33:57;;;;;;;9.2;6.7;;;;;;;1.35;89.73828;941.9501;;;;
2020/03/15 04:36:22;;;;;;;12.8;6.8;;;;;;;1.37;89.36035;941.9548;;;;
2020/03/15 04:38:47;;;;;;;11.9;6.7;;;;;;;1.32;90.11914;941.9395;;;;
2020/03/15 04:41:12;;;;;;;9.5;6.6;;;;;;;1.35;90.09375;941.9348;;;;
2020/03/15 04:43:37;;;;;;;16.4;9.6;;;;;;;1.45;89.6543;941.8984;;;;
2020/03/15 04:46:02;;;;;;;11.9;6.5;;;;;;;1.35;89.60156;941.9081;;;;
2020/03/15 04:48:27;;;;;;;12.9;6.8;;;;;;;1.2;89.76172;941.8226;;;;
2020/03/15 04:50:53;;;;;;;10.5;6.8;;;;;;;1.08;90.15918;941.8684;;;;
2020/03/15 04:53:18;;;;;;;11.1;6.6;;;;;;;1.2;89.37012;941.8635;;;;
2020/03/15 04:55:43;;;;;;;11.7;6.7;;;;;;;1.17;88.88184;941.8739;;;;
2020/03/15 04:58:08;;;;;;;25.5;12.8;;;;;;;1.04;89.25781;941.8315;;;;
2020/03/15 05:01:06;;;;;;;29.4;13.8;;;;;;;0.97;89.59961;941.8197;;;;
2020/03/15 05:02:58;;;;;;;19.3;9.8;;;;;;;0.93;89.74609;941.8271;;;;
2020/03/15 05:05:23;;;;;;;12.7;8;;;;;;;1.02;89.60938;941.8286;;;;
2020/03/15 05:07:48;;;;;;;11.2;6.4;;;;;;;0.86;90.10156;941.8055;;;;
2020/03/15 05:10:13;;;;;;;15.9;10.8;;;;;;;0.86;90.43457;941.8131;;;;
2020/03/15 05:12:38;;;;;;;13.2;9.9;;;;;;;0.93;90.61719;941.7086;;;;
2020/03/15 05:15:04;;;;;;;20.1;10.6;;;;;;;1.05;90.05273;941.7636;;;;
2020/03/15 05:17:29;;;;;;;11;6.3;;;;;;;1.12;89.26367;941.7791;;;;
2020/03/15 05:19:54;;;;;;;11.7;6.1;;;;;;;1.19;88.8418;941.7768;;;;
2020/03/15 05:22:19;;;;;;;11.6;6;;;;;;;1.14;88.39453;941.7203;;;;
2020/03/15 05:24:44;;;;;;;10.6;6;;;;;;;1.03;88.68652;941.7307;;;;
2020/03/15 05:27:09;;;;;;;11.2;6.2;;;;;;;0.73;90.13965;941.7255;;;;
2020/03/15 05:29:34;;;;;;;9.1;5.6;;;;;;;0.63;90.6875;941.7073;;;;
2020/03/15 05:31:59;;;;;;;10.3;5.8;;;;;;;0.72;90.30469;941.7525;;;;
2020/03/15 05:34:24;;;;;;;10.4;5.5;;;;;;;0.83;89.88184;941.7097;;;;
2020/03/15 05:36:50;;;;;;;9.9;5.7;;;;;;;0.85;89.2959;941.8137;;;;
2020/03/15 05:39:15;;;;;;;10.8;5.4;;;;;;;0.9;89.39648;941.7897;;;;
2020/03/15 05:41:40;;;;;;;14.4;5.9;;;;;;;1.04;88.80957;941.8008;;;;
2020/03/15 05:44:05;;;;;;;10.6;6.3;;;;;;;0.93;88.94238;941.7872;;;;
2020/03/15 05:46:30;;;;;;;14.9;7.1;;;;;;;0.86;90.03223;941.7153;;;;
2020/03/15 05:48:55;;;;;;;14.4;7;;;;;;;1.05;90.0752;941.7402;;;;
2020/03/15 05:51:20;;;;;;;13.7;8;;;;;;;1.16;89.02539;941.7654;;;;
2020/03/15 05:53:45;;;;;;;15.8;10.3;;;;;;;1.04;88.78711;941.7444;;;;
2020/03/15 05:56:10;;;;;;;21.8;14.2;;;;;;;0.91;89.28516;941.7219;;;;
2020/03/15 05:58:35;;;;;;;15.4;9.6;;;;;;;0.92;89.15332;941.7003;;;;
2020/03/15 06:01:00;;;;;;;12.6;8.1;;;;;;;1.03;88.86523;941.7307;;;;
2020/03/15 06:03:26;;;;;;;13.3;8.5;;;;;;;0.92;88.68359;941.7097;;;;
2020/03/15 06:05:51;;;;;;;10.8;6;;;;;;;0.88;89.41309;941.6758;;;;
2020/03/15 06:08:16;;;;;;;12.6;7.1;;;;;;;1.07;89.78809;941.6822;;;;
2020/03/15 06:10:41;;;;;;;12.2;5.5;;;;;;;1.75;86.64355;941.5923;;;;
2020/03/15 06:13:06;;;;;;;8.1;4.2;;;;;;;2.41;82.91504;941.5754;;;;
2020/03/15 06:15:32;;;;;;;9.3;4.6;;;;;;;3.01;80.05664;941.5418;;;;
2020/03/15 06:17:56;;;;;;;12.1;6.6;;;;;;;4.06;75.9375;941.4853;;;;
2020/03/15 06:20:22;;;;;;;9;5.1;;;;;;;4.5;73.26855;941.4711;;;;
2020/03/15 06:22:47;;;;;;;7.8;4.1;;;;;;;4.58;72.89844;941.4637;;;;
2020/03/15 06:25:12;;;;;;;9.4;3.7;;;;;;;4.85;71.94336;941.4063;;;;
2020/03/15 06:27:37;;;;;;;6.7;3.3;;;;;;;5.22;71.09082;941.4008;;;;
2020/03/15 06:30:02;;;;;;;7.5;4.7;;;;;;;5.12;70.39844;941.4161;;;;
2020/03/15 06:32:27;;;;;;;8.2;5.1;;;;;;;4.05;74.45117;941.459;;;;
2020/03/15 06:34:52;;;;;;;12;5;;;;;;;4.31;74.60938;941.4542;;;;
2020/03/15 06:37:17;;;;;;;8.4;4.5;;;;;;;4.95;72.00488;941.4288;;;;
2020/03/15 06:39:42;;;;;;;5.9;3.6;;;;;;;5.12;70.64746;941.3554;;;;
2020/03/15 06:42:07;;;;;;;9.5;4.2;;;;;;;5.06;71.22363;941.4425;;;;
2020/03/15 06:44:32;;;;;;;11.8;4.8;;;;;;;5.36;70.73145;941.4665;;;;
2020/03/15 06:46:57;;;;;;;7.8;3.9;;;;;;;5.42;69.78125;941.4553;;;;
2020/03/15 06:49:23;;;;;;;7.2;3.2;;;;;;;5.76;68.55176;941.3381;;;;
2020/03/15 06:51:48;;;;;;;9.4;3.5;;;;;;;5.63;69.00391;941.375;;;;
2020/03/15 06:54:13;;;;;;;7.7;3.2;;;;;;;5.83;68.69727;941.3739;;;;
2020/03/15 06:56:38;;;;;;;8.8;3;;;;;;;6.16;68.16211;941.2456;;;;
2020/03/15 06:59:03;;;;;;;9;3.1;;;;;;;6.97;65.48438;941.1873;;;;
2020/03/15 07:01:28;;;;;;;5;2.9;;;;;;;6.86;65.68262;941.1462;;;;
2020/03/15 07:03:53;;;;;;;5.4;2.8;;;;;;;6.85;65.31934;941.2213;;;;
2020/03/15 07:06:18;;;;;;;6;2.8;;;;;;;7.43;64.0459;941.2272;;;;
2020/03/15 07:08:43;;;;;;;5.7;2.5;;;;;;;6.94;64.98047;941.2014;;;;
2020/03/15 07:11:09;;;;;;;5.5;2.8;;;;;;;6.95;65.72754;941.1858;;;;
2020/03/15 07:13:34;;;;;;;4.3;2.6;;;;;;;6.71;66.37207;941.1962;;;;
2020/03/15 07:15:59;;;;;;;5;2.5;;;;;;;7.43;64.71582;941.2329;;;;
2020/03/15 07:18:24;;;;;;;4.9;2.7;;;;;;;8.03;62.68262;941.2177;;;;
2020/03/15 07:20:49;;;;;;;6.1;2.5;;;;;;;8.54;60.9043;941.1736;;;;
2020/03/15 07:23:14;;;;;;;4.4;2.4;;;;;;;9.37;56.97949;941.2017;;;;
2020/03/15 07:25:39;;;;;;;5;2.7;;;;;;;9.59;56.06348;941.0795;;;;
2020/03/15 07:28:06;;;;;;;5.6;2.9;;;;;;;9.01;59.11621;941.1397;;;;
2020/03/15 07:30:29;;;;;;;5;2.9;;;;;;;8.51;59.62891;941.1041;;;;
2020/03/15 07:32:55;;;;;;;5.5;3.1;;;;;;;8.94;57.78711;941.1158;;;;
2020/03/15 07:35:20;;;;;;;8.3;3.3;;;;;;;9.89;55.45215;941.0287;;;;
2020/03/15 07:37:45;;;;;;;5.8;2.8;;;;;;;11.01;51.17285;940.9902;;;;
2020/03/15 07:40:10;;;;;;;8.7;2.7;;;;;;;11.29;48.47266;940.9808;;;;
2020/03/15 07:42:35;;;;;;;4.3;2.3;;;;;;;11.75;47.57324;940.9764;;;;
2020/03/15 07:45:01;;;;;;;6.7;2.2;;;;;;;11.84;45.28027;940.9356;;;;
2020/03/15 07:47:26;;;;;;;4.3;2.1;;;;;;;11.81;46.30859;940.8784;;;;
2020/03/15 07:49:51;;;;;;;5.7;2.4;;;;;;;12.26;45.98926;940.8484;;;;
2020/03/15 07:52:16;;;;;;;6.5;2.1;;;;;;;11.66;45.42285;940.8711;;;;
2020/03/15 07:54:41;;;;;;;6.4;2.4;;;;;;;12.27;44.90137;940.7575;;;;
2020/03/15 07:57:06;;;;;;;5.2;2.2;;;;;;;12.14;44.65918;940.7642;;;;
2020/03/15 07:59:31;;;;;;;4.8;2.4;;;;;;;12.49;45.2002;940.7009;;;;
2020/03/15 08:01:57;;;;;;;5.5;2.6;;;;;;;13.26;43.49902;940.6666;;;;
2020/03/15 08:04:23;;;;;;;5;2.5;;;;;;;13.7;42.69238;940.6384;;;;
2020/03/15 08:06:48;;;;;;;4.9;2;;;;;;;13.43;41.66602;940.5314;;;;
2020/03/15 08:09:13;;;;;;;5.9;2.3;;;;;;;14.24;41.9502;940.5105;;;;
2020/03/15 08:11:38;;;;;;;4.3;2.1;;;;;;;14.79;38.55566;940.4629;;;;
2020/03/15 08:14:03;;;;;;;7.6;2.1;;;;;;;14.82;38.4541;940.4174;;;;
2020/03/15 08:16:28;;;;;;;5.2;2.1;;;;;;;15.53;37.1543;940.394;;;;
2020/03/15 08:18:53;;;;;;;4.9;2.3;;;;;;;15.7;36.41797;940.3903;;;;
2020/03/15 08:21:19;;;;;;;9.6;3.3;;;;;;;16.7;34.625;940.3141;;;;
2020/03/15 08:23:44;;;;;;;7.6;4.7;;;;;;;16.65;36.01074;940.2766;;;;
2020/03/15 08:26:10;;;;;;;6.7;2.6;;;;;;;17.1;34.92285;940.2393;;;;
2020/03/15 08:28:35;;;;;;;7.4;2.6;;;;;;;17.54;33.55469;940.2436;;;;
2020/03/15 08:31:00;;;;;;;6.1;2.9;;;;;;;17.33;34.94141;940.1947;;;;
2020/03/15 08:33:25;;;;;;;7.4;2.2;;;;;;;17.1;34.49414;940.1266;;;;
2020/03/15 08:35:50;;;;;;;11.4;2.3;;;;;;;16.49;36.39063;940.1116;;;;
2020/03/15 08:38:15;;;;;;;5.6;1.9;;;;;;;17.05;35.77734;940.0829;;;;
2020/03/15 08:40:40;;;;;;;3.8;1.9;;;;;;;17.93;33.71191;940.0187;;;;
2020/03/15 08:43:06;;;;;;;4.5;1.7;;;;;;;18.26;32.74902;940.0461;;;;
2020/03/15 08:45:31;;;;;;;4.8;1.9;;;;;;;18.24;32.30664;939.9407;;;;
2020/03/15 08:47:56;;;;;;;7.8;2;;;;;;;18.55;32.3877;939.9517;;;;
2020/03/15 08:50:21;;;;;;;10.3;2.3;;;;;;;20.17;30.96484;939.8823;;;;
2020/03/15 08:52:46;;;;;;;5.3;1.8;;;;;;;19.78;28.90918;939.9138;;;;
2020/03/15 08:55:11;;;;;;;3.3;1.5;;;;;;;17.99;29.44141;939.8333;;;;
2020/03/15 08:57:36;;;;;;;5.5;3;;;;;;;16.79;32.19922;939.8741;;;;
2020/03/15 09:00:01;;;;;;;4.6;2.4;;;;;;;17.43;30.05469;939.8209;;;;
2020/03/15 09:02:27;;;;;;;3.2;1.5;;;;;;;18.25;29.11133;939.7593;;;;
2020/03/15 09:04:52;;;;;;;8.3;2.3;;;;;;;19.49;28.71484;939.6588;;;;
2020/03/15 09:07:17;;;;;;;2.9;1.5;;;;;;;18.28;26.88184;939.5571;;;;
2020/03/15 09:09:43;;;;;;;3.2;1.9;;;;;;;18.05;28.98145;939.5103;;;;
2020/03/15 09:12:07;;;;;;;3.1;1.9;;;;;;;17.95;29.60156;939.5019;;;;
2020/03/15 09:14:32;;;;;;;2.8;1.4;;;;;;;18.22;26.75;939.4838;;;;
2020/03/15 09:16:57;;;;;;;3.3;1.5;;;;;;;17.89;29.25;939.4288;;;;
2020/03/15 09:19:22;;;;;;;6.8;1.6;;;;;;;18.57;28.36426;939.4045;;;;
2020/03/15 09:21:47;;;;;;;7.6;2.1;;;;;;;18.33;29.37207;939.3917;;;;
2020/03/15 09:24:12;;;;;;;6.9;2.2;;;;;;;18.82;26.90332;939.2841;;;;
2020/03/15 09:26:37;;;;;;;4.5;1.6;;;;;;;17.94;27.58105;939.324;;;;
2020/03/15 09:29:02;;;;;;;5.1;1.8;;;;;;;16.73;29.02148;939.291;;;;
2020/03/15 09:31:28;;;;;;;5.6;2.1;;;;;;;17.47;29.08301;939.2567;;;;
2020/03/15 09:33:53;;;;;;;2.8;1.4;;;;;;;16.75;28.47852;939.2142;;;;
2020/03/15 09:36:18;;;;;;;8.6;3.6;;;;;;;15.85;29.92285;939.1505;;;;
2020/03/15 09:38:43;;;;;;;4.7;1.9;;;;;;;16.56;30.46973;939.0938;;;;
2020/03/15 09:41:08;;;;;;;5.5;2.3;;;;;;;17.54;28.24023;939.0689;;;;
2020/03/15 09:43:33;;;;;;;4.5;1.8;;;;;;;17.51;28.92285;939.0234;;;;
2020/03/15 09:45:58;;;;;;;2.7;1.4;;;;;;;16.57;29.56641;938.9964;;;;
2020/03/15 09:48:23;;;;;;;3.8;1.4;;;;;;;16.37;29.54199;938.9961;;;;
2020/03/15 09:50:48;;;;;;;3.9;1.6;;;;;;;16.53;30.17773;938.8642;;;;
2020/03/15 09:53:14;;;;;;;3.4;1.2;;;;;;;16.33;31.25195;938.8824;;;;
2020/03/15 09:55:39;;;;;;;4.5;1.5;;;;;;;16.18;29.57617;938.8429;;;;
2020/03/15 09:58:04;;;;;;;3.1;1.7;;;;;;;15.55;29.97168;938.779;;;;
2020/03/15 10:00:29;;;;;;;5;1.9;;;;;;;15.33;31.61816;938.7469;;;;
2020/03/15 10:02:54;;;;;;;2.7;1.5;;;;;;;15.42;30.39063;938.5787;;;;
2020/03/15 10:05:19;;;;;;;4.3;1.8;;;;;;;14.39;31.39063;938.6364;;;;
2020/03/15 10:07:45;;;;;;;8.6;2.5;;;;;;;15.16;33.51172;938.6259;;;;
2020/03/15 10:10:10;;;;;;;2.8;1.4;;;;;;;15.48;32.03418;938.5661;;;;
2020/03/15 10:12:35;;;;;;;5.2;1.5;;;;;;;15.78;31.38574;938.5109;;;;
2020/03/15 10:15:00;;;;;;;3.6;1.5;;;;;;;15.28;30.95801;938.5306;;;;
2020/03/15 10:17:25;;;;;;;4;1.3;;;;;;;14.73;30.13477;938.4535;;;;
2020/03/15 10:19:50;;;;;;;2.7;1.3;;;;;;;15.3;30.6582;938.5305;;;;
2020/03/15 10:22:15;;;;;;;2.6;1.2;;;;;;;15.27;29.7334;938.4978;;;;
2020/03/15 10:24:40;;;;;;;2;1;;;;;;;15.57;30.59766;938.465;;;;
2020/03/15 10:27:05;;;;;;;3.6;1.6;;;;;;;16.05;31.81055;938.4523;;;;
2020/03/15 10:29:31;;;;;;;2.6;1.2;;;;;;;16.19;30.70996;938.4459;;;;
2020/03/15 10:31:56;;;;;;;2.8;1.3;;;;;;;16.72;31.14063;938.3864;;;;
2020/03/15 10:34:21;;;;;;;2.9;1.2;;;;;;;17.01;27.74219;938.3342;;;;
2020/03/15 10:36:46;;;;;;;5;1.4;;;;;;;17;27.05859;938.3119;;;;
2020/03/15 10:39:11;;;;;;;2.9;1.4;;;;;;;17.67;27.29688;938.3059;;;;
2020/03/15 10:41:36;;;;;;;2.6;1.1;;;;;;;18.27;26.52051;938.2756;;;;
2020/03/15 10:44:02;;;;;;;2.1;1.1;;;;;;;19.32;25.80371;938.2202;;;;
2020/03/15 10:46:27;;;;;;;2.7;1;;;;;;;18.47;24.97461;938.1219;;;;
2020/03/15 10:48:52;;;;;;;2.5;1.1;;;;;;;18.78;25.39941;938.1116;;;;
2020/03/15 10:51:17;;;;;;;2.2;1.1;;;;;;;18.75;25.375;938.105;;;;
2020/03/15 10:53:42;;;;;;;3.3;1.2;;;;;;;18;26.15527;938.0394;;;;
2020/03/15 10:56:07;;;;;;;4.5;2.1;;;;;;;18.12;25.50098;938.0179;;;;
2020/03/15 10:58:32;;;;;;;2;1;;;;;;;18.57;25.75879;937.9673;;;;
2020/03/15 11:00:57;;;;;;;2.1;1.2;;;;;;;18.27;25.06836;937.9532;;;;
2020/03/15 11:03:22;;;;;;;1.2;0.9;;;;;;;18.49;25.14941;937.9037;;;;
2020/03/15 11:05:48;;;;;;;3;1.1;;;;;;;18.99;24.50293;937.7747;;;;
2020/03/15 11:08:12;;;;;;;3;1;;;;;;;18.32;25.61719;937.9529;;;;
2020/03/15 11:10:38;;;;;;;1.9;0.9;;;;;;;20.39;23.77637;937.8742;;;;
2020/03/15 11:13:03;;;;;;;3.2;0.9;;;;;;;19.44;23.06055;937.8209;;;;
2020/03/15 11:15:28;;;;;;;1.8;0.8;;;;;;;20.3;23.5957;937.7991;;;;
2020/03/15 11:17:53;;;;;;;1.9;0.8;;;;;;;21.35;22.43555;937.7631;;;;
2020/03/15 11:20:18;;;;;;;2.3;0.9;;;;;;;22.28;20.89844;937.7263;;;;
2020/03/15 11:22:44;;;;;;;1.6;0.8;;;;;;;22.35;21.78125;937.693;;;;
2020/03/15 11:25:09;;;;;;;2.3;0.9;;;;;;;23.06;18.57422;937.6117;;;;
2020/03/15 11:27:34;;;;;;;1.8;0.9;;;;;;;23.05;21.40527;937.5284;;;;
2020/03/15 11:29:59;;;;;;;1.3;0.7;;;;;;;24.7;18.74805;937.553;;;;
2020/03/15 11:32:24;;;;;;;1.8;0.8;;;;;;;24.11;17.07422;937.5103;;;;
2020/03/15 11:34:49;;;;;;;1.4;0.8;;;;;;;23.25;18.55762;937.4763;;;;
2020/03/15 11:37:15;;;;;;;1.5;0.8;;;;;;;22.9;19.95215;937.5148;;;;
2020/03/15 11:39:40;;;;;;;2.5;0.7;;;;;;;22.54;20.00684;937.424;;;;
2020/03/15 11:42:05;;;;;;;1.9;0.8;;;;;;;23.35;20.1377;937.4157;;;;
2020/03/15 11:44:30;;;;;;;1.7;0.8;;;;;;;24.04;18.37891;937.3376;;;;
2020/03/15 11:46:55;;;;;;;1.7;0.8;;;;;;;24.83;18.14063;937.3044;;;;
2020/03/15 11:49:21;;;;;;;2;0.7;;;;;;;25.49;17.8125;937.2466;;;;
2020/03/15 11:51:46;;;;;;;2;0.8;;;;;;;24.49;17.72559;937.2215;;;;
2020/03/15 11:54:11;;;;;;;1;0.8;;;;;;;25.21;17.14063;937.2675;;;;
2020/03/15 11:56:37;;;;;;;1.1;0.6;;;;;;;27.01;15.14746;937.2634;;;;
2020/03/15 11:59:02;;;;;;;1.7;0.8;;;;;;;27.47;15.03223;937.1895;;;;
2020/03/15 12:01:29;;;;;;;1.9;0.9;;;;;;;27.65;15.82227;937.1395;;;;
2020/03/15 12:03:52;;;;;;;2;0.9;;;;;;;26.49;16.00586;937.2018;;;;
2020/03/15 12:06:18;;;;;;;1.6;0.7;;;;;;;25.95;16.06934;937.1044;;;;
2020/03/15 12:08:43;;;;;;;1.3;0.8;;;;;;;26.34;17.00586;937.1881;;;;
2020/03/15 12:11:08;;;;;;;1.4;0.8;;;;;;;24.64;17.37793;937.0952;;;;
2020/03/15 12:13:34;;;;;;;1.3;0.8;;;;;;;22.93;18.94434;936.9662;;;;
2020/03/15 12:15:59;;;;;;;1.9;0.8;;;;;;;25.4;17.33691;937.007;;;;
2020/03/15 12:18:24;;;;;;;1;0.7;;;;;;;26.67;15.76367;936.9839;;;;
2020/03/15 12:20:49;;;;;;;1.9;0.8;;;;;;;27.07;16.09766;936.861;;;;
2020/03/15 12:23:15;;;;;;;1.1;0.7;;;;;;;27.2;14.52539;936.8865;;;;
2020/03/15 12:25:40;;;;;;;1.1;0.7;;;;;;;27.19;14.82129;936.8746;;;;
2020/03/15 12:28:05;;;;;;;1.6;0.8;;;;;;;26.33;14.82813;936.7778;;;;
2020/03/15 12:30:30;;;;;;;1.7;0.8;;;;;;;27;15.60938;936.7985;;;;
2020/03/15 12:32:55;;;;;;;1.3;0.7;;;;;;;28.46;14.05469;936.7413;;;;
2020/03/15 12:35:20;;;;;;;1;0.6;;;;;;;29.15;13.30176;936.6953;;;;
2020/03/15 12:37:46;;;;;;;2;0.7;;;;;;;29.14;12.70605;936.6064;;;;
2020/03/15 12:40:11;;;;;;;1.5;0.6;;;;;;;29.56;13.19531;936.6682;;;;
2020/03/15 12:42:36;;;;;;;1;0.7;;;;;;;28.94;13.34375;936.6481;;;;
2020/03/15 12:45:02;;;;;;;1.1;0.5;;;;;;;27.73;13.17676;936.61;;;;
2020/03/15 12:47:27;;;;;;;3.5;0.9;;;;;;;27.62;14.28906;936.5542;;;;
2020/03/15 12:49:52;;;;;;;0.9;0.5;;;;;;;27.01;14.43555;936.4836;;;;
2020/03/15 12:52:18;;;;;;;1.5;0.7;;;;;;;26.61;15.07422;936.4411;;;;
2020/03/15 12:54:42;;;;;;;1.3;0.6;;;;;;;27.99;13.87305;936.4109;;;;
2020/03/15 12:57:08;;;;;;;1;0.6;;;;;;;28.48;13.35352;936.384;;;;
2020/03/15 12:59:33;;;;;;;1.6;0.7;;;;;;;28.82;13.26855;936.361;;;;
2020/03/15 13:01:58;;;;;;;2.1;0.7;;;;;;;28.96;12.77246;936.3723;;;;
2020/03/15 13:04:23;;;;;;;1.8;0.7;;;;;;;29.73;12.37695;936.3262;;;;
2020/03/15 13:06:48;;;;;;;1.8;1.5;;;;;;;29.74;11.61426;936.3472;;;;
2020/03/15 13:09:13;;;;;;;2.1;0.8;;;;;;;32;11.69629;936.3228;;;;
2020/03/15 13:11:39;;;;;;;1.8;0.8;;;;;;;31.67;10.63379;936.3469;;;;
2020/03/15 13:14:04;;;;;;;1.8;0.6;;;;;;;30.99;11.33496;936.2445;;;;
2020/03/15 13:16:30;;;;;;;0.8;0.6;;;;;;;32.65;10.28516;936.2545;;;;
2020/03/15 13:18:55;;;;;;;1.2;0.5;;;;;;;32.31;9.473633;936.2045;;;;
2020/03/15 13:21:20;;;;;;;1.5;0.8;;;;;;;29.91;10.98633;936.2283;;;;
2020/03/15 13:23:45;;;;;;;1.7;1.2;;;;;;;29.54;11.69238;936.1772;;;;
2020/03/15 13:26:10;;;;;;;2.1;0.7;;;;;;;28.97;12.60645;936.1205;;;;
2020/03/15 13:28:36;;;;;;;2.2;0.8;;;;;;;30.95;11.74121;936.1083;;;;
2020/03/15 13:31:01;;;;;;;1.6;0.6;;;;;;;29.61;12.5293;936.1241;;;;
2020/03/15 13:33:27;;;;;;;0.8;0.5;;;;;;;29.3;11.90039;936.1175;;;;
2020/03/15 13:35:52;;;;;;;1;0.5;;;;;;;30.66;11.45801;936.1186;;;;
2020/03/15 13:38:17;;;;;;;1.4;0.5;;;;;;;30.62;11.12305;936.0873;;;;
2020/03/15 13:40:42;;;;;;;1.1;0.6;;;;;;;30.9;10.89063;936.0676;;;;
2020/03/15 13:43:07;;;;;;;2.1;0.8;;;;;;;31.37;11.62012;936.1102;;;;
2020/03/15 13:45:32;;;;;;;1.4;0.6;;;;;;;31.7;10.28711;936.1199;;;;
2020/03/15 13:47:57;;;;;;;4.7;0.8;;;;;;;31.39;11.18945;936.0569;;;;
2020/03/15 13:50:23;;;;;;;1.8;0.7;;;;;;;30.14;10.71777;936.0969;;;;
2020/03/15 13:52:48;;;;;;;1.4;0.8;;;;;;;29.29;11.17383;936.0762;;;;
2020/03/15 13:55:13;;;;;;;1.3;0.7;;;;;;;30.11;11.05078;936.0363;;;;
2020/03/15 13:57:38;;;;;;;2;0.7;;;;;;;30.29;11.7002;936.0503;;;;
2020/03/15 14:00:03;;;;;;;1.3;0.6;;;;;;;30.9;10.35254;936.0239;;;;
2020/03/15 14:02:28;;;;;;;1.6;0.7;;;;;;;31.86;11.0332;936.0204;;;;
2020/03/15 14:04:54;;;;;;;0.9;0.5;;;;;;;32.21;10.52637;935.9972;;;;
2020/03/15 14:07:19;;;;;;;1.4;0.6;;;;;;;31.29;12.00098;936.0444;;;;
2020/03/15 14:09:44;;;;;;;1.2;0.7;;;;;;;30.85;12.85059;936.0272;;;;
2020/03/15 14:12:09;;;;;;;0.9;0.5;;;;;;;30.68;13.40723;936.0981;;;;
2020/03/15 14:14:35;;;;;;;1.8;0.7;;;;;;;30.63;13.40527;936.0811;;;;
2020/03/15 14:17:00;;;;;;;1.6;0.8;;;;;;;30.76;13.89941;935.9875;;;;
2020/03/15 14:19:25;;;;;;;1.2;0.8;;;;;;;30.25;14.49219;936.0531;;;;
2020/03/15 14:21:50;;;;;;;1.9;0.8;;;;;;;29.96;14.95996;936.0201;;;;
2020/03/15 14:24:15;;;;;;;1.7;0.9;;;;;;;29.92;15.18555;936.0328;;;;
2020/03/15 14:26:40;;;;;;;1.7;0.8;;;;;;;29.04;15.97754;936.0134;;;;
2020/03/15 14:29:05;;;;;;;1.3;0.6;;;;;;;27.28;18.14551;935.998;;;;
2020/03/15 14:31:31;;;;;;;1.9;0.8;;;;;;;26.29;18.29395;936.043;;;;
2020/03/15 14:33:56;;;;;;;1.7;0.8;;;;;;;25.1;19.1543;936.0325;;;;
2020/03/15 14:36:21;;;;;;;1.9;0.8;;;;;;;24.85;19.92188;935.9987;;;;
2020/03/15 14:38:46;;;;;;;1.3;0.7;;;;;;;24.1;21.69043;935.9542;;;;
2020/03/15 14:41:11;;;;;;;1.6;0.8;;;;;;;24.11;21.71484;936.0019;;;;
2020/03/15 14:43:36;;;;;;;3.2;1.1;;;;;;;23.34;21.83008;936.0261;;;;
2020/03/15 14:46:01;;;;;;;5.7;1.4;;;;;;;23.08;22.24023;935.897;;;;
2020/03/15 14:48:26;;;;;;;3.9;1;;;;;;;22.89;22.06641;935.9412;;;;
2020/03/15 14:50:51;;;;;;;2.6;0.9;;;;;;;23.09;21.62988;935.9188;;;;
2020/03/15 14:53:17;;;;;;;2.5;0.9;;;;;;;23.26;21.61426;935.9253;;;;
2020/03/15 14:55:42;;;;;;;3.1;1;;;;;;;22.87;22.22949;935.8969;;;;
2020/03/15 14:58:07;;;;;;;1.7;0.9;;;;;;;22.54;22.96387;935.9459;;;;
2020/03/15 15:00:32;;;;;;;3.1;1.1;;;;;;;22.13;22.83691;935.9031;;;;
2020/03/15 15:02:57;;;;;;;3.7;1;;;;;;;21.35;24.25977;935.8686;;;;
2020/03/15 15:05:23;;;;;;;3.8;1.4;;;;;;;20.71;24.64551;935.8499;;;;
2020/03/15 15:07:48;;;;;;;2.7;1.4;;;;;;;20.13;25.33691;935.8778;;;;
2020/03/15 15:10:13;;;;;;;2.5;1.1;;;;;;;19.63;26.77734;935.9029;;;;
2020/03/15 15:12:38;;;;;;;2.7;1.2;;;;;;;19.2;27.43848;935.9059;;;;
2020/03/15 15:15:04;;;;;;;2.3;0.9;;;;;;;18.73;27.88672;935.9233;;;;
2020/03/15 15:17:29;;;;;;;3.1;0.9;;;;;;;18.53;28.4668;935.8423;;;;
2020/03/15 15:19:54;;;;;;;2.5;1;;;;;;;18.15;28.63965;935.9179;;;;
2020/03/15 15:22:19;;;;;;;4.7;1.2;;;;;;;17.85;29.06152;935.9077;;;;
2020/03/15 15:24:45;;;;;;;3.6;1;;;;;;;17.62;29.91602;935.9448;;;;
2020/03/15 15:27:10;;;;;;;2.9;0.9;;;;;;;17.5;29.86133;935.9545;;;;